This is the latest recevied weather packets stored in our database for station/object WA4TPR. If no packets are shown the sender has not sent any weather packets the latest 10 day(s).
| Time | Temp. | Humidity | Pressure | Rain* | Wind** | Luminosity | Snow |
|---|---|---|---|---|---|---|---|
| 1778017065 | 28.89° C | 61% | 1018 hPa | 0 mm | - | 210 W/m² | - |
| 1778016762 | 28.89° C | 61% | 1017.8 hPa | 0 mm | - | 204 W/m² | - |
| 1778016458 | 28.89° C | 60% | 1018 hPa | 0 mm | - | 201 W/m² | - |
| 1778016156 | 28.89° C | 61% | 1017.9 hPa | 0 mm | - | 175 W/m² | - |
| 1778015853 | 28.89° C | 60% | 1018.2 hPa | 0 mm | - | 180 W/m² | - |
| 1778015550 | 28.89° C | 61% | 1018.1 hPa | 0 mm | - | 149 W/m² | - |
| 1778015246 | 28.89° C | 61% | 1018.2 hPa | 0 mm | - | 141 W/m² | - |
| 1778014943 | 30.56° C | 56% | 1018 hPa | 0 mm | - | 362 W/m² | - |
| 1778014641 | 30.56° C | 56% | 1018 hPa | 0 mm | - | 511 W/m² | - |
| 1778014339 | 31.11° C | 54% | 1018 hPa | 0 mm | - | 548 W/m² | - |
| 1778014035 | 31.11° C | 55% | 1017.8 hPa | 0 mm | - | 602 W/m² | - |
| 1778013733 | 30.56° C | 56% | 1018 hPa | 0 mm | - | 539 W/m² | - |
| 1778013430 | 30.56° C | 56% | 1017.9 hPa | 0 mm | - | 538 W/m² | - |
| 1778013127 | 30.56° C | 56% | 1018 hPa | 0 mm | - | 526 W/m² | - |
| 1778012822 | 30° C | 57% | 1017.9 hPa | 0 mm | - | 553 W/m² | - |
| 1778012519 | 30° C | 57% | 1017.9 hPa | 0 mm | - | 639 W/m² | - |
| 1778012215 | 30.56° C | 56% | 1018 hPa | 0 mm | - | 649 W/m² | - |
| 1778011913 | 30° C | 57% | 1018.1 hPa | 0 mm | - | 649 W/m² | - |
| 1778011611 | 30.56° C | 56% | 1017.9 hPa | 0 mm | - | 625 W/m² | - |
| 1778011308 | 30° C | 55% | 1018.1 hPa | 0 mm | - | 703 W/m² | - |
| 1778011003 | 30° C | 58% | 1018.2 hPa | 0 mm | - | 426 W/m² | - |
| 1778010701 | 30.56° C | 57% | 1018.2 hPa | 0 mm | - | 305 W/m² | - |
| 1778010398 | 30.56° C | 57% | 1018.3 hPa | 0 mm | - | 448 W/m² | - |
| 1778010094 | 31.11° C | 52% | 1018.2 hPa | 0 mm | - | 684 W/m² | - |
| 1778009791 | 30.56° C | 56% | 1018.1 hPa | 0 mm | - | 690 W/m² | - |
* Rain latest hour (hover to see other rain measurements)
** Current wind speed in m/s (hover to see current wind gust speed)